createdAt,value
2023-03-03T00:00:25.268Z,24.60
2023-03-03T00:02:54.279Z,23.60
2023-03-03T00:05:22.540Z,26.20
2023-03-03T00:07:51.030Z,24.20
2023-03-03T00:10:20.908Z,24.80
2023-03-03T00:12:49.996Z,26.60
2023-03-03T00:15:20.782Z,26.90
2023-03-03T00:17:51.270Z,22.90
2023-03-03T00:20:24.614Z,25.20
2023-03-03T00:22:54.312Z,24.90
2023-03-03T00:25:30.986Z,22.20
2023-03-03T00:28:27.736Z,24.80
2023-03-03T00:31:00.793Z,26.50
2023-03-03T00:33:34.905Z,26.20
2023-03-03T00:36:37.768Z,25.30
2023-03-03T00:39:31.923Z,28.20
2023-03-03T00:42:00.789Z,26.10
2023-03-03T00:44:45.478Z,24.40
2023-03-03T00:47:52.564Z,24.40
2023-03-03T00:50:35.001Z,27.60
2023-03-03T00:53:12.326Z,22.80
2023-03-03T00:55:40.771Z,26.60
2023-03-03T00:58:10.153Z,25.10
2023-03-03T01:00:41.502Z,27.50
2023-03-03T01:03:14.933Z,24.10
2023-03-03T01:05:44.715Z,23.90
2023-03-03T01:08:14.127Z,25.10
2023-03-03T01:10:52.436Z,25.60
2023-03-03T01:13:26.400Z,24.60
2023-03-03T01:15:56.293Z,26.50
2023-03-03T01:18:24.748Z,28.70
2023-03-03T01:20:53.435Z,26.20
2023-03-03T01:23:28.885Z,25.20
2023-03-03T01:25:58.492Z,24.60
2023-03-03T01:28:26.777Z,27.60
2023-03-03T01:30:55.504Z,23.30
2023-03-03T01:33:23.858Z,26.40
2023-03-03T01:35:52.232Z,26.00
2023-03-03T01:38:21.122Z,27.30
2023-03-03T01:40:54.720Z,24.20
2023-03-03T01:43:23.714Z,26.70
2023-03-03T01:45:53.507Z,27.50
2023-03-03T01:48:26.324Z,25.30
2023-03-03T01:50:59.460Z,24.00
2023-03-03T01:53:48.613Z,23.10
2023-03-03T01:56:17.257Z,23.90
2023-03-03T01:59:01.615Z,25.60
2023-03-03T02:01:30.019Z,25.70
2023-03-03T02:04:01.038Z,24.80
2023-03-03T02:06:39.603Z,21.40
2023-03-03T02:09:12.503Z,20.70
2023-03-03T02:11:43.756Z,24.40
2023-03-03T02:14:13.543Z,24.40
2023-03-03T02:16:45.780Z,21.90
2023-03-03T02:19:53.592Z,25.70
2023-03-03T02:22:33.252Z,23.20
2023-03-03T02:25:02.846Z,21.60
2023-03-03T02:27:39.012Z,21.50
2023-03-03T02:30:23.572Z,22.20
2023-03-03T02:32:51.862Z,20.50
2023-03-03T02:35:31.422Z,20.90
2023-03-03T02:38:55.696Z,19.90
2023-03-03T02:41:59.201Z,19.10
2023-03-03T02:44:33.215Z,18.20
2023-03-03T02:47:02.004Z,18.90
2023-03-03T02:49:32.407Z,17.10
2023-03-03T02:52:01.286Z,18.10
2023-03-03T02:54:33.120Z,17.50
2023-03-03T02:57:02.920Z,16.10
2023-03-03T02:59:31.475Z,17.70
2023-03-03T03:04:32.218Z,19.00
2023-03-03T03:07:02.559Z,20.60
2023-03-03T03:09:34.108Z,20.50
2023-03-03T03:12:04.123Z,18.50
2023-03-03T03:14:34.873Z,19.70
2023-03-03T03:17:03.551Z,18.80
2023-03-03T03:19:35.108Z,20.40
2023-03-03T03:22:04.412Z,17.70
2023-03-03T03:24:38.735Z,16.80
2023-03-03T03:27:09.099Z,17.70
2023-03-03T03:29:38.769Z,19.70
2023-03-03T03:32:07.548Z,16.00
2023-03-03T03:34:36.052Z,15.60
2023-03-03T03:37:13.642Z,16.10
2023-03-03T03:39:59.123Z,15.80
2023-03-03T03:42:28.048Z,15.30
2023-03-03T03:44:57.631Z,15.90
2023-03-03T03:47:26.113Z,15.70
2023-03-03T03:49:54.498Z,16.20
2023-03-03T03:52:22.879Z,16.20
2023-03-03T03:54:52.287Z,16.60
2023-03-03T03:57:21.173Z,14.50
2023-03-03T04:00:12.704Z,16.30
2023-03-03T04:02:46.014Z,16.50
2023-03-03T04:05:16.435Z,15.00
2023-03-03T04:07:45.880Z,15.90
2023-03-03T04:10:18.211Z,16.00
2023-03-03T04:12:46.899Z,16.40
2023-03-03T04:15:16.608Z,17.10
2023-03-03T04:17:47.656Z,16.00
2023-03-03T04:20:16.961Z,17.00
2023-03-03T04:22:48.212Z,18.10
2023-03-03T04:25:17.737Z,19.10
2023-03-03T04:27:51.320Z,22.30
2023-03-03T04:30:21.949Z,17.60
2023-03-03T04:32:51.560Z,18.40
2023-03-03T04:35:21.718Z,20.00
2023-03-03T04:37:50.169Z,20.70
2023-03-03T04:40:18.857Z,19.40
2023-03-03T04:42:49.100Z,17.00
2023-03-03T04:45:23.605Z,19.00
2023-03-03T04:47:52.292Z,18.10
2023-03-03T04:50:25.296Z,17.60
2023-03-03T04:52:55.512Z,15.10
2023-03-03T04:55:24.091Z,17.10
2023-03-03T04:57:54.316Z,15.70
2023-03-03T05:00:22.701Z,15.20
2023-03-03T05:02:51.200Z,17.20
2023-03-03T05:05:20.583Z,19.40
2023-03-03T05:07:48.858Z,17.00
2023-03-03T05:10:17.240Z,18.90
2023-03-03T05:12:45.516Z,17.10
2023-03-03T05:15:16.968Z,18.00
2023-03-03T05:17:46.174Z,15.40
2023-03-03T05:20:15.470Z,18.00
2023-03-03T05:22:44.875Z,16.40
2023-03-03T05:25:13.766Z,18.90
2023-03-03T05:27:44.403Z,18.70
2023-03-03T05:30:13.790Z,16.90
2023-03-03T05:32:47.097Z,18.90
2023-03-03T05:35:15.688Z,19.90
2023-03-03T05:37:48.058Z,17.40
2023-03-03T05:40:16.956Z,17.50
2023-03-03T05:42:46.907Z,16.20
2023-03-03T05:45:15.868Z,18.20
2023-03-03T05:47:44.969Z,17.70
2023-03-03T05:50:13.366Z,17.90
2023-03-03T05:52:41.736Z,18.40
2023-03-03T05:55:11.517Z,18.10
2023-03-03T05:57:42.485Z,19.00
2023-03-03T06:00:12.538Z,16.80
2023-03-03T06:02:42.611Z,18.80
2023-03-03T06:05:11.996Z,18.60
2023-03-03T06:07:40.420Z,14.70
2023-03-03T06:10:09.221Z,16.20
2023-03-03T06:12:45.373Z,18.40
2023-03-03T06:15:13.820Z,17.70
2023-03-03T06:17:44.601Z,15.00
2023-03-03T06:20:13.193Z,14.30
2023-03-03T06:22:42.282Z,15.00
2023-03-03T06:25:12.211Z,17.40
2023-03-03T06:27:41.388Z,15.70
2023-03-03T06:30:11.708Z,14.40
2023-03-03T06:32:40.348Z,14.30
2023-03-03T06:35:09.139Z,16.40
2023-03-03T06:37:38.699Z,14.50
2023-03-03T06:40:08.975Z,15.30
2023-03-03T06:45:09.422Z,15.80
2023-03-03T06:47:38.148Z,13.50
2023-03-03T06:50:09.836Z,15.00
2023-03-03T06:52:38.320Z,15.90
2023-03-03T06:55:17.442Z,16.40
2023-03-03T06:57:50.537Z,16.90
2023-03-03T07:00:31.179Z,15.40
2023-03-03T07:03:02.353Z,17.70
2023-03-03T07:05:33.960Z,21.60
2023-03-03T07:08:03.005Z,16.50
2023-03-03T07:10:31.588Z,16.00
2023-03-03T07:13:24.761Z,17.60
2023-03-03T07:15:54.430Z,17.10
2023-03-03T07:18:42.519Z,15.50
2023-03-03T07:21:22.630Z,13.10
2023-03-03T07:23:54.336Z,13.40
2023-03-03T07:26:26.368Z,15.20
2023-03-03T07:31:39.630Z,13.90
2023-03-03T07:34:24.725Z,15.30
2023-03-03T07:37:02.522Z,12.60
2023-03-03T07:39:34.301Z,14.70
2023-03-03T07:42:35.126Z,14.50
2023-03-03T07:45:39.968Z,17.40
2023-03-03T07:48:13.677Z,17.70
2023-03-03T07:50:42.569Z,19.80
2023-03-03T07:53:35.040Z,19.50
2023-03-03T07:56:31.244Z,19.70
2023-03-03T07:59:00.069Z,16.80
2023-03-03T08:01:48.691Z,17.20
2023-03-03T08:04:21.147Z,17.10
2023-03-03T08:06:53.371Z,16.00
2023-03-03T08:09:31.771Z,16.20
2023-03-03T08:12:06.787Z,18.00
2023-03-03T08:14:38.218Z,16.20
2023-03-03T08:17:20.265Z,21.00
2023-03-03T08:19:51.331Z,18.50
2023-03-03T08:22:25.699Z,15.00
2023-03-03T08:24:53.979Z,14.10
2023-03-03T08:27:22.356Z,15.20
2023-03-03T08:29:50.634Z,16.30
2023-03-03T08:32:19.103Z,13.40
2023-03-03T08:34:47.701Z,13.20
2023-03-03T08:37:16.903Z,13.90
2023-03-03T08:39:46.014Z,13.20
2023-03-03T08:42:16.230Z,14.80
2023-03-03T08:44:46.947Z,14.80
2023-03-03T08:47:15.451Z,14.40
2023-03-03T08:49:44.444Z,15.40
2023-03-03T08:52:12.932Z,15.10
2023-03-03T08:54:41.509Z,12.30
2023-03-03T08:57:10.206Z,13.90
2023-03-03T08:59:39.428Z,13.90
2023-03-03T09:02:08.129Z,13.40
2023-03-03T09:04:37.203Z,13.80
2023-03-03T09:07:05.667Z,12.10
2023-03-03T09:09:33.922Z,13.30
2023-03-03T09:12:17.379Z,13.80
2023-03-03T09:14:47.309Z,12.00
2023-03-03T09:17:42.408Z,13.70
2023-03-03T09:20:34.748Z,13.80
2023-03-03T09:23:39.479Z,13.80
2023-03-03T09:26:31.824Z,11.60
2023-03-03T09:29:15.773Z,14.50
2023-03-03T09:32:02.501Z,11.70
2023-03-03T09:34:49.403Z,13.60
2023-03-03T09:37:34.621Z,13.30
2023-03-03T09:40:19.509Z,11.90
2023-03-03T09:42:57.238Z,11.70
2023-03-03T09:45:37.504Z,12.10
2023-03-03T09:48:36.203Z,12.20
2023-03-03T09:51:23.419Z,12.10
2023-03-03T09:54:05.010Z,14.30
2023-03-03T09:56:35.690Z,13.00
2023-03-03T09:59:09.960Z,11.80
2023-03-03T10:01:54.010Z,11.50
2023-03-03T10:04:31.917Z,11.60
2023-03-03T10:07:28.434Z,11.20
2023-03-03T10:10:28.068Z,11.40
2023-03-03T10:13:41.727Z,10.70
2023-03-03T10:16:22.541Z,11.20
2023-03-03T10:19:02.894Z,11.70
2023-03-03T10:21:41.676Z,10.00
2023-03-03T10:24:31.990Z,13.10
2023-03-03T10:27:34.657Z,12.40
2023-03-03T10:30:05.229Z,12.60
2023-03-03T10:32:49.902Z,10.80
2023-03-03T10:35:18.620Z,12.30
2023-03-03T10:38:02.588Z,12.60
2023-03-03T10:40:42.538Z,11.10
2023-03-03T10:43:35.804Z,14.40
2023-03-03T10:46:25.602Z,10.40
2023-03-03T10:49:00.041Z,11.20
2023-03-03T10:51:57.882Z,10.60
2023-03-03T10:54:45.116Z,11.20
2023-03-03T10:57:31.623Z,10.90
2023-03-03T11:00:44.917Z,10.10
2023-03-03T11:04:09.940Z,9.20
2023-03-03T11:07:16.228Z,9.50
2023-03-03T11:09:53.059Z,9.70
2023-03-03T11:12:48.590Z,11.10
2023-03-03T11:16:15.191Z,9.70
2023-03-03T11:19:22.057Z,7.30
2023-03-03T11:22:15.547Z,6.30
2023-03-03T11:24:51.512Z,6.90
2023-03-03T11:27:48.958Z,7.10
2023-03-03T11:30:18.269Z,9.10
2023-03-03T11:32:51.342Z,7.50
2023-03-03T11:35:29.860Z,7.10
2023-03-03T11:38:05.005Z,7.90
2023-03-03T11:40:54.292Z,6.00
2023-03-03T11:43:36.105Z,9.10
2023-03-03T11:46:20.323Z,6.00
2023-03-03T11:48:58.356Z,7.10
2023-03-03T11:52:21.114Z,7.30
2023-03-03T11:55:14.457Z,6.40
2023-03-03T11:58:01.371Z,5.50
2023-03-03T12:00:59.138Z,5.70
2023-03-03T12:03:49.739Z,5.90
2023-03-03T12:06:25.128Z,6.10
2023-03-03T12:09:01.212Z,5.80
2023-03-03T12:11:37.621Z,5.40
2023-03-03T12:14:28.529Z,6.10
2023-03-03T12:16:59.984Z,7.60
2023-03-03T12:19:43.723Z,6.50
2023-03-03T12:22:18.284Z,6.30
2023-03-03T12:24:50.960Z,6.50
2023-03-03T12:27:49.741Z,7.30
2023-03-03T12:30:45.052Z,6.80
2023-03-03T12:33:23.043Z,7.40
2023-03-03T12:36:36.521Z,7.80
2023-03-03T12:39:34.798Z,6.80
2023-03-03T12:42:45.959Z,7.90
2023-03-03T12:45:32.266Z,5.90
2023-03-03T12:48:02.069Z,6.90
2023-03-03T12:50:56.251Z,7.10
2023-03-03T12:54:15.289Z,7.50
2023-03-03T12:56:51.368Z,5.30
2023-03-03T12:59:44.405Z,8.80
2023-03-03T13:02:32.487Z,5.90
2023-03-03T13:05:33.722Z,5.80
2023-03-03T13:08:37.388Z,7.80
2023-03-03T13:11:44.651Z,5.10
2023-03-03T13:14:32.537Z,5.20
2023-03-03T13:17:49.626Z,5.30
2023-03-03T13:20:38.431Z,5.80
2023-03-03T13:24:05.013Z,6.30
2023-03-03T13:27:42.001Z,7.60
2023-03-03T13:45:37.000Z,14.30
2023-03-03T13:48:09.864Z,13.50
2023-03-03T13:50:46.750Z,16.80
2023-03-03T13:53:43.610Z,17.00
2023-03-03T13:56:59.119Z,18.50
2023-03-03T14:00:41.079Z,19.80
2023-03-03T14:03:50.413Z,20.80
2023-03-03T14:06:28.635Z,22.10
2023-03-03T14:09:42.147Z,19.90
2023-03-03T14:12:30.269Z,20.90
2023-03-03T14:15:24.355Z,21.80
2023-03-03T14:18:30.236Z,21.10
2023-03-03T14:21:42.049Z,21.20
2023-03-03T14:24:45.188Z,22.80
2023-03-03T14:28:02.184Z,23.80
2023-03-03T14:30:57.485Z,22.10
2023-03-03T14:34:21.440Z,28.10
2023-03-03T14:37:26.169Z,25.00
2023-03-03T14:43:08.186Z,23.10
2023-03-03T14:45:38.654Z,23.60
2023-03-03T14:48:19.284Z,20.30
2023-03-03T14:50:51.468Z,20.30
2023-03-03T14:53:19.832Z,21.60
2023-03-03T14:55:50.523Z,20.30
2023-03-03T14:58:40.794Z,20.00
2023-03-03T15:01:17.641Z,21.50
2023-03-03T15:03:58.444Z,22.70
2023-03-03T15:06:34.594Z,24.00
2023-03-03T15:09:51.609Z,20.80
2023-03-03T15:12:37.360Z,20.60
2023-03-03T15:15:16.660Z,21.40
2023-03-03T15:17:55.453Z,22.10
2023-03-03T15:20:42.681Z,20.40
2023-03-03T15:23:33.077Z,20.40
2023-03-03T15:26:20.711Z,18.90
2023-03-03T15:28:55.538Z,18.00
2023-03-03T15:31:39.269Z,23.10
2023-03-03T15:34:43.814Z,17.60
2023-03-03T15:37:23.554Z,15.80
2023-03-03T15:40:13.132Z,14.80
2023-03-03T15:43:10.765Z,13.40
2023-03-03T15:46:15.973Z,14.50
2023-03-03T15:48:47.297Z,14.20
2023-03-03T15:54:12.930Z,13.20
2023-03-03T15:56:48.173Z,12.00
2023-03-03T15:59:22.320Z,10.40
2023-03-03T16:01:56.844Z,17.50
2023-03-03T16:04:26.425Z,16.70
2023-03-03T16:07:28.026Z,16.70
2023-03-03T16:10:06.033Z,16.80
2023-03-03T16:13:01.815Z,16.80
2023-03-03T16:15:50.837Z,16.90
2023-03-03T16:18:38.115Z,14.00
2023-03-03T16:21:40.278Z,15.20
2023-03-03T16:25:40.309Z,15.30
2023-03-03T16:28:18.622Z,14.40
2023-03-03T16:30:57.040Z,15.10
2023-03-03T16:33:44.398Z,16.00
2023-03-03T16:36:18.997Z,15.50
2023-03-03T16:38:59.669Z,13.80
2023-03-03T16:41:43.355Z,14.10
2023-03-03T16:44:11.786Z,14.30
2023-03-03T16:46:45.395Z,15.20
2023-03-03T16:49:27.834Z,14.20
2023-03-03T16:52:11.340Z,15.70
2023-03-03T16:54:56.340Z,18.10
2023-03-03T16:57:48.059Z,13.60
2023-03-03T17:00:23.255Z,12.80
2023-03-03T17:03:15.122Z,14.60
2023-03-03T17:06:04.608Z,12.70
2023-03-03T17:08:41.873Z,12.40
2023-03-03T17:11:13.327Z,11.20
2023-03-03T17:13:49.183Z,14.30
2023-03-03T17:16:52.702Z,13.40
2023-03-03T17:19:41.953Z,13.40
2023-03-03T17:22:19.355Z,16.00
2023-03-03T17:25:04.916Z,15.60
2023-03-03T17:27:47.648Z,12.50
2023-03-03T17:30:44.607Z,13.70
2023-03-03T17:33:33.400Z,17.10
2023-03-03T17:36:07.590Z,15.50
2023-03-03T17:38:53.572Z,17.70
2023-03-03T17:41:24.210Z,16.10
2023-03-03T17:43:58.422Z,17.30
2023-03-03T17:46:38.899Z,17.10
2023-03-03T17:49:41.480Z,16.80
2023-03-03T17:52:17.225Z,14.20
2023-03-03T17:55:08.034Z,19.30
2023-03-03T17:57:51.699Z,17.30
2023-03-03T18:00:38.080Z,14.40
2023-03-03T18:03:09.337Z,16.80
2023-03-03T18:06:06.485Z,14.90
2023-03-03T18:08:47.576Z,16.90
2023-03-03T18:11:30.997Z,17.70
2023-03-03T18:14:08.924Z,19.50
2023-03-03T18:16:42.822Z,19.20
2023-03-03T18:19:39.254Z,18.90
2023-03-03T18:22:23.101Z,20.20
2023-03-03T18:24:53.628Z,19.80
2023-03-03T18:27:33.387Z,19.10
2023-03-03T18:30:07.928Z,20.80
2023-03-03T18:32:42.801Z,23.60
2023-03-03T18:35:33.406Z,21.90
2023-03-03T18:38:16.952Z,22.80
2023-03-03T18:41:01.947Z,22.50
2023-03-03T18:43:41.190Z,24.40
2023-03-03T18:46:11.383Z,25.30
2023-03-03T18:48:51.873Z,22.30
2023-03-03T18:51:38.166Z,26.10
2023-03-03T18:54:21.401Z,25.30
2023-03-03T18:57:04.114Z,25.00
2023-03-03T18:59:41.916Z,24.40
2023-03-03T19:04:47.515Z,27.40
2023-03-03T19:07:26.741Z,25.80
2023-03-03T19:09:59.068Z,26.30
2023-03-03T19:12:58.074Z,27.70
2023-03-03T19:15:36.026Z,25.50
2023-03-03T19:18:21.427Z,26.80
2023-03-03T19:21:07.673Z,28.20
2023-03-03T19:24:00.472Z,27.20
2023-03-03T19:26:32.395Z,28.30
2023-03-03T19:29:26.373Z,26.60
2023-03-03T19:31:57.150Z,27.40
2023-03-03T19:34:32.934Z,27.60
2023-03-03T19:37:29.315Z,29.20
2023-03-03T19:40:31.687Z,28.40
2023-03-03T19:43:16.560Z,29.10
2023-03-03T19:45:57.629Z,27.50
2023-03-03T19:48:49.464Z,29.80
2023-03-03T19:51:30.238Z,27.90
2023-03-03T19:54:46.139Z,28.90
2023-03-03T19:57:37.552Z,29.70
2023-03-03T20:00:47.819Z,28.50
2023-03-03T20:03:40.977Z,26.50
2023-03-03T20:06:24.818Z,27.80
2023-03-03T20:08:59.139Z,26.60
2023-03-03T20:12:02.133Z,27.70
2023-03-03T20:14:44.777Z,27.70
2023-03-03T20:17:32.377Z,30.40
2023-03-03T20:20:27.997Z,26.90
2023-03-03T20:23:38.063Z,28.30
2023-03-03T20:26:09.308Z,27.40
2023-03-03T20:29:02.262Z,24.80
2023-03-03T20:31:52.620Z,26.10
2023-03-03T20:34:33.946Z,28.00
2023-03-03T20:37:39.599Z,30.60
2023-03-03T20:40:20.986Z,30.50
2023-03-03T20:42:58.687Z,34.80
2023-03-03T20:45:29.788Z,32.90
2023-03-03T20:48:32.316Z,33.20
2023-03-03T20:53:52.635Z,33.70
2023-03-03T20:56:53.579Z,34.30
2023-03-03T20:59:42.032Z,29.10
2023-03-03T21:02:50.960Z,29.30
2023-03-03T21:05:20.891Z,26.90
2023-03-03T21:07:58.679Z,27.30
2023-03-03T21:10:34.154Z,27.30
2023-03-03T21:13:26.373Z,28.90
2023-03-03T21:16:02.245Z,27.60
2023-03-03T21:18:32.041Z,25.60
2023-03-03T21:21:01.034Z,28.70
2023-03-03T21:23:29.630Z,25.10
2023-03-03T21:26:47.182Z,26.70
2023-03-03T21:29:21.574Z,27.40
2023-03-03T21:32:09.638Z,27.80
2023-03-03T21:34:39.345Z,28.90
2023-03-03T21:37:12.785Z,28.70
2023-03-03T21:39:45.815Z,28.10
2023-03-03T21:42:15.845Z,27.50
2023-03-03T21:44:50.031Z,27.20
2023-03-03T21:47:20.222Z,29.10
2023-03-03T21:52:29.328Z,30.10
2023-03-03T21:54:57.815Z,27.00
2023-03-03T21:57:27.129Z,29.10
2023-03-03T21:59:57.871Z,25.10
2023-03-03T22:02:26.360Z,32.30
2023-03-03T22:04:54.766Z,27.50
2023-03-03T22:07:23.196Z,25.70
2023-03-03T22:09:52.092Z,30.30
2023-03-03T22:12:20.266Z,28.90
2023-03-03T22:14:49.687Z,30.50
2023-03-03T22:17:19.500Z,28.30
2023-03-03T22:19:47.851Z,29.10
2023-03-03T22:22:20.139Z,28.80
2023-03-03T22:24:50.262Z,30.00
2023-03-03T22:27:19.125Z,28.40
2023-03-03T22:29:47.542Z,26.90
2023-03-03T22:32:15.849Z,28.20
2023-03-03T22:34:44.207Z,28.60
2023-03-03T22:37:12.795Z,28.90
2023-03-03T22:39:41.178Z,28.20
2023-03-03T22:42:11.289Z,28.80
2023-03-03T22:44:40.514Z,32.50
2023-03-03T22:47:08.980Z,27.80
2023-03-03T22:49:37.459Z,27.50
2023-03-03T22:52:05.746Z,28.50
2023-03-03T22:54:34.633Z,33.20
2023-03-03T22:57:03.317Z,34.50
2023-03-03T22:59:32.929Z,29.90
2023-03-03T23:02:01.836Z,30.90
2023-03-03T23:04:33.253Z,28.00
2023-03-03T23:07:02.676Z,29.10
2023-03-03T23:09:33.716Z,27.70
2023-03-03T23:12:07.756Z,27.10
2023-03-03T23:14:36.926Z,27.80
2023-03-03T23:17:05.614Z,30.30
2023-03-03T23:19:37.271Z,28.80
2023-03-03T23:22:05.653Z,27.20
2023-03-03T23:24:34.046Z,28.70
2023-03-03T23:27:08.971Z,30.90
2023-03-03T23:29:38.272Z,32.10
2023-03-03T23:32:07.595Z,28.60
2023-03-03T23:34:37.804Z,29.10
2023-03-03T23:37:08.544Z,29.60
2023-03-03T23:39:37.025Z,29.20
2023-03-03T23:42:05.592Z,29.20
2023-03-03T23:44:34.504Z,28.20
2023-03-03T23:47:09.746Z,29.20
2023-03-03T23:49:40.384Z,31.70
2023-03-03T23:52:09.280Z,29.40
2023-03-03T23:54:38.161Z,30.30
2023-03-03T23:57:08.398Z,28.30
2023-03-03T23:59:36.876Z,31.30
